createdAt,value
2022-11-09T00:01:09.613Z,26.17
2022-11-09T00:06:13.226Z,25.98
2022-11-09T00:11:18.034Z,29.58
2022-11-09T00:16:22.923Z,30.05
2022-11-09T00:21:27.217Z,29.83
2022-11-09T00:26:32.009Z,26.50
2022-11-09T00:31:35.408Z,31.48
2022-11-09T00:36:38.783Z,29.75
2022-11-09T00:41:43.440Z,28.08
2022-11-09T00:46:46.803Z,29.60
2022-11-09T00:51:50.228Z,30.02
2022-11-09T00:56:55.041Z,28.25
2022-11-09T01:01:58.381Z,28.83
2022-11-09T01:07:01.887Z,28.40
2022-11-09T01:12:06.945Z,31.90
2022-11-09T01:17:10.545Z,29.05
2022-11-09T01:22:14.544Z,27.85
2022-11-09T01:27:19.218Z,28.63
2022-11-09T01:32:22.914Z,35.53
2022-11-09T01:37:26.300Z,31.60
2022-11-09T01:42:31.067Z,30.42
2022-11-09T01:47:34.695Z,30.15
2022-11-09T01:52:42.071Z,31.35
2022-11-09T01:57:50.835Z,28.95
2022-11-09T02:02:57.683Z,29.73
2022-11-09T02:08:02.821Z,28.80
2022-11-09T02:13:09.261Z,29.38
2022-11-09T02:18:12.878Z,30.13
2022-11-09T02:23:18.620Z,27.83
2022-11-09T02:28:22.753Z,29.05
2022-11-09T02:33:26.150Z,29.15
2022-11-09T02:38:30.836Z,30.63
2022-11-09T02:43:34.902Z,29.60
2022-11-09T02:48:38.745Z,31.52
2022-11-09T02:53:43.717Z,34.97
2022-11-09T02:58:47.104Z,30.42
2022-11-09T03:03:50.781Z,32.17
2022-11-09T03:08:55.522Z,29.73
2022-11-09T03:13:59.541Z,29.02
2022-11-09T03:19:03.206Z,30.65
2022-11-09T03:24:08.853Z,29.75
2022-11-09T03:29:12.504Z,31.55
2022-11-09T03:34:16.176Z,32.17
2022-11-09T03:39:20.903Z,30.20
2022-11-09T03:44:24.516Z,31.73
2022-11-09T03:49:27.891Z,30.27
2022-11-09T03:54:32.635Z,29.50
2022-11-09T03:59:36.233Z,30.88
2022-11-09T04:04:39.617Z,31.58
2022-11-09T04:09:44.345Z,30.35
2022-11-09T04:14:47.827Z,28.05
2022-11-09T04:19:51.441Z,29.55
2022-11-09T04:24:56.447Z,31.23
2022-11-09T04:29:59.838Z,30.30
2022-11-09T04:35:04.162Z,30.63
2022-11-09T04:40:10.822Z,30.00
2022-11-09T04:45:14.295Z,31.42
2022-11-09T04:50:17.939Z,36.20
2022-11-09T04:55:23.987Z,30.40
2022-11-09T05:00:28.044Z,29.98
2022-11-09T05:05:31.502Z,30.17
2022-11-09T05:10:37.025Z,27.25
2022-11-09T05:15:40.867Z,33.67
2022-11-09T05:20:44.274Z,31.67
2022-11-09T05:25:49.569Z,30.25
2022-11-09T05:30:53.109Z,29.67
2022-11-09T05:35:56.847Z,32.55
2022-11-09T05:41:01.600Z,30.02
2022-11-09T05:46:06.738Z,28.33
2022-11-09T05:51:13.088Z,33.63
2022-11-09T05:56:17.848Z,34.05
2022-11-09T06:01:21.198Z,34.83
2022-11-09T06:06:24.846Z,38.83
2022-11-09T06:11:29.573Z,35.50
2022-11-09T06:16:32.971Z,33.45
2022-11-09T06:21:36.364Z,34.92
2022-11-09T06:26:41.132Z,35.40
2022-11-09T06:31:44.492Z,38.47
2022-11-09T06:36:47.848Z,31.17
2022-11-09T06:41:52.657Z,33.15
2022-11-09T06:46:56.296Z,30.38
2022-11-09T06:51:59.734Z,30.83
2022-11-09T06:57:04.688Z,33.50
2022-11-09T07:02:10.032Z,35.97
2022-11-09T07:07:13.490Z,36.30
2022-11-09T07:12:18.240Z,32.30
2022-11-09T07:17:21.921Z,34.33
2022-11-09T07:22:25.341Z,32.35
2022-11-09T07:27:30.472Z,34.67
2022-11-09T07:33:07.005Z,34.72
2022-11-09T07:38:01.405Z,37.42
2022-11-09T07:43:07.472Z,34.05
2022-11-09T07:48:12.785Z,33.15
2022-11-09T07:53:17.254Z,34.85
2022-11-09T07:58:21.931Z,34.42
2022-11-09T08:03:26.251Z,35.75
2022-11-09T08:08:29.585Z,35.10
2022-11-09T08:13:34.320Z,34.45
2022-11-09T08:18:37.746Z,37.38
2022-11-09T08:23:41.776Z,32.58
2022-11-09T08:28:47.018Z,30.13
2022-11-09T08:33:50.618Z,33.03
2022-11-09T08:39:02.970Z,32.17
2022-11-09T08:44:09.896Z,31.55
2022-11-09T08:49:17.555Z,28.60
2022-11-09T08:54:21.717Z,31.08
2022-11-09T08:59:26.447Z,29.48
2022-11-09T09:04:30.504Z,30.85
2022-11-09T09:09:34.648Z,32.20
2022-11-09T09:14:39.333Z,29.67
2022-11-09T09:19:48.826Z,30.48
2022-11-09T09:24:53.718Z,25.40
2022-11-09T09:29:59.408Z,29.67
2022-11-09T09:35:02.886Z,31.15
2022-11-09T09:40:08.215Z,25.42
2022-11-09T09:45:19.430Z,23.30
2022-11-09T09:50:27.996Z,24.05
2022-11-09T09:55:40.164Z,23.70
2022-11-09T10:00:45.712Z,21.90
2022-11-09T10:06:00.394Z,18.52
2022-11-09T10:11:17.442Z,24.15
2022-11-09T10:16:30.496Z,23.30
2022-11-09T10:21:44.915Z,26.25
2022-11-09T10:26:56.047Z,24.02
2022-11-09T10:32:10.905Z,24.60
2022-11-09T10:37:18.495Z,28.30
2022-11-09T10:42:21.907Z,23.70
2022-11-09T10:47:26.901Z,23.98
2022-11-09T10:52:42.977Z,28.65
2022-11-09T10:57:57.622Z,25.67
2022-11-09T11:03:12.132Z,24.48
2022-11-09T11:08:34.478Z,26.85
2022-11-09T11:13:37.923Z,27.75
2022-11-09T11:18:46.557Z,24.10
2022-11-09T11:24:16.129Z,24.13
2022-11-09T11:29:35.823Z,25.98
2022-11-09T11:35:01.292Z,23.95
2022-11-09T11:40:10.899Z,24.48
2022-11-09T11:45:41.492Z,22.88
2022-11-09T11:50:51.309Z,25.75
2022-11-09T11:56:22.391Z,23.60
2022-11-09T12:01:40.287Z,27.92
2022-11-09T12:07:10.662Z,21.85
2022-11-09T12:12:24.610Z,23.92
2022-11-09T12:17:34.823Z,21.08
2022-11-09T12:22:54.218Z,22.90
2022-11-09T12:28:10.400Z,20.88
2022-11-09T12:33:19.869Z,22.48
2022-11-09T12:38:31.723Z,22.85
2022-11-09T12:43:48.404Z,21.00
2022-11-09T12:48:51.916Z,22.45
2022-11-09T12:53:57.483Z,24.42
2022-11-09T12:59:21.795Z,21.05
2022-11-09T13:04:27.306Z,21.58
2022-11-09T13:09:44.156Z,20.48
2022-11-09T13:14:48.388Z,24.13
2022-11-09T13:19:55.324Z,22.95
2022-11-09T13:25:01.250Z,25.45
2022-11-09T13:30:41.785Z,25.20
2022-11-09T13:36:18.774Z,20.80
2022-11-09T13:41:43.759Z,22.65
2022-11-09T13:46:48.416Z,22.98
2022-11-09T13:51:52.043Z,25.13
2022-11-09T13:56:58.201Z,19.80
2022-11-09T14:02:03.227Z,24.38
2022-11-09T14:07:08.495Z,25.75
2022-11-09T14:12:24.986Z,23.98
2022-11-09T14:17:34.773Z,26.98
2022-11-09T14:22:41.346Z,26.02
2022-11-09T14:27:57.035Z,28.08
2022-11-09T14:33:00.585Z,29.48
2022-11-09T14:38:18.414Z,26.15
2022-11-09T14:43:28.696Z,28.65
2022-11-09T14:48:33.327Z,31.05
2022-11-09T14:53:38.483Z,28.50
2022-11-09T14:58:45.213Z,31.70
2022-11-09T15:04:07.769Z,30.13
2022-11-09T15:09:18.117Z,30.00
2022-11-09T15:14:28.851Z,31.88
2022-11-09T15:19:35.161Z,35.03
2022-11-09T15:24:49.265Z,34.75
2022-11-09T15:29:54.077Z,37.95
2022-11-09T15:35:00.251Z,36.67
2022-11-09T15:40:03.832Z,31.52
2022-11-09T15:45:09.653Z,31.80
2022-11-09T15:50:18.142Z,43.40
2022-11-09T15:55:23.910Z,34.97
2022-11-09T16:00:28.857Z,36.05
2022-11-09T16:05:32.943Z,33.88
2022-11-09T16:10:39.672Z,34.47
2022-11-09T16:15:44.485Z,30.35
2022-11-09T16:20:47.884Z,35.40
2022-11-09T16:25:51.287Z,34.55
2022-11-09T16:30:57.111Z,39.03
2022-11-09T16:36:02.558Z,39.72
2022-11-09T16:41:06.720Z,36.08
2022-11-09T16:46:12.514Z,41.53
2022-11-09T16:51:15.951Z,44.53
2022-11-09T16:56:19.347Z,40.40
2022-11-09T17:01:24.426Z,45.55
2022-11-09T17:06:28.406Z,45.70
2022-11-09T17:11:32.112Z,48.00
2022-11-09T17:16:37.652Z,43.15
2022-11-09T17:21:41.058Z,46.78
2022-11-09T17:26:44.407Z,51.83
2022-11-09T17:31:49.180Z,47.92
2022-11-09T17:37:07.844Z,52.08
2022-11-09T17:42:11.615Z,46.70
2022-11-09T17:47:16.344Z,44.90
2022-11-09T17:52:20.917Z,44.35
2022-11-09T17:57:27.223Z,41.53
2022-11-09T18:02:32.252Z,39.45
2022-11-09T18:07:35.947Z,41.83
2022-11-09T18:12:39.338Z,50.13
2022-11-09T18:17:44.063Z,50.35
2022-11-09T18:22:47.475Z,59.53
2022-11-09T18:27:52.404Z,61.25
2022-11-09T18:32:57.144Z,64.85
2022-11-09T18:38:00.507Z,64.35
2022-11-09T18:43:04.075Z,61.95
2022-11-09T18:48:08.885Z,58.75
2022-11-09T18:53:12.355Z,66.82
2022-11-09T18:58:16.114Z,57.70
2022-11-09T19:03:23.359Z,58.97
2022-11-09T19:08:44.821Z,55.03
2022-11-09T19:13:51.384Z,59.53
2022-11-09T19:18:56.715Z,60.53
2022-11-09T19:24:00.965Z,63.45
2022-11-09T19:29:06.881Z,76.55
2022-11-09T19:34:12.508Z,72.88
2022-11-09T19:39:17.312Z,67.88
2022-11-09T19:44:24.201Z,69.00
2022-11-09T19:49:29.090Z,73.38
2022-11-09T19:54:32.482Z,72.00
2022-11-09T19:59:36.327Z,74.72
2022-11-09T20:04:43.486Z,83.15
2022-11-09T20:09:46.897Z,90.72
2022-11-09T20:14:50.323Z,74.63
2022-11-09T20:19:55.031Z,54.47
2022-11-09T20:24:58.660Z,54.05
2022-11-09T20:30:02.260Z,60.17
2022-11-09T20:35:08.257Z,56.78
2022-11-09T20:40:12.930Z,57.50
2022-11-09T20:45:16.663Z,69.47
2022-11-09T20:50:21.612Z,71.20
2022-11-09T20:55:25.316Z,57.58
2022-11-09T21:00:28.788Z,55.60
2022-11-09T21:05:34.465Z,43.85
2022-11-09T21:10:37.902Z,39.92
2022-11-09T21:15:41.287Z,40.35
2022-11-09T21:20:46.244Z,39.53
2022-11-09T21:26:07.379Z,38.78
2022-11-09T21:31:11.128Z,39.47
2022-11-09T21:36:16.129Z,35.95
2022-11-09T21:41:37.294Z,42.63
2022-11-09T21:46:42.512Z,38.25
2022-11-09T21:51:48.219Z,32.85
2022-11-09T21:56:52.956Z,38.90
2022-11-09T22:01:56.396Z,33.28
2022-11-09T22:07:01.285Z,36.50
2022-11-09T22:12:22.520Z,36.35
2022-11-09T22:17:25.964Z,33.63
2022-11-09T22:22:33.562Z,38.05
2022-11-09T22:27:37.040Z,39.25
2022-11-09T22:32:40.386Z,37.35
2022-11-09T22:37:45.362Z,38.28
2022-11-09T22:42:48.744Z,37.58
2022-11-09T22:47:52.578Z,36.10
2022-11-09T22:53:03.504Z,32.70
2022-11-09T22:58:07.411Z,35.65
2022-11-09T23:03:10.765Z,33.83
2022-11-09T23:08:15.753Z,35.83
2022-11-09T23:13:19.488Z,34.55
2022-11-09T23:18:41.132Z,29.90
2022-11-09T23:23:46.311Z,31.25
2022-11-09T23:28:51.354Z,32.10
2022-11-09T23:33:56.549Z,34.97
2022-11-09T23:39:01.252Z,27.27
2022-11-09T23:44:04.619Z,29.08
2022-11-09T23:49:08.480Z,30.25
2022-11-09T23:54:13.174Z,28.77
2022-11-09T23:59:16.553Z,24.50
